Time;durP1;ratioP1;P1;durP2;ratioP2;P2;SDS_P1;SDS_P2;PMS_P1;PMS_P2;Temp;Humidity;BMP_temperature;BMP_pressure;BME280_temperature;BME280_humidity;BME280_pressure;Samples;Min_cycle;Max_cycle;Signal;HPM_P1;HPM_P2
2022/03/04 00:01:31;;;;;;;;;;;2.00;99.90;;;;;;5113341;27;20270;-73
2022/03/04 00:03:57;;;;;;;;;;;2.00;99.90;;;;;;5113540;27;19914;-76
2022/03/04 00:06:23;;;;;;;;;;;1.90;99.90;;;;;;5114082;27;19916;-74
2022/03/04 00:08:50;;;;;;;;;;;2.00;99.90;;;;;;5093147;28;20374;-73
2022/03/04 00:11:16;;;;;;;;;;;2.00;99.90;;;;;;5111295;28;19919;-72
2022/03/04 00:13:41;;;;;;;;;;;2.00;99.90;;;;;;5093324;28;20282;-73
2022/03/04 00:16:07;;;;;;;;;;;2.00;99.90;;;;;;5092749;28;19916;-72
2022/03/04 00:18:33;;;;;;;;;;;2.00;99.90;;;;;;5093123;28;19919;-73
2022/03/04 00:20:58;;;;;;;;;;;2.00;99.90;;;;;;5111524;28;19916;-73
2022/03/04 00:23:24;;;;;;;;;;;2.00;99.90;;;;;;5092907;28;19990;-74
2022/03/04 00:25:50;;;;;;;;;;;2.00;99.90;;;;;;5111614;28;19920;-73
2022/03/04 00:28:16;;;;;;;;;;;1.90;99.90;;;;;;5092954;28;19934;-74
2022/03/04 00:30:41;;;;;;;;;;;1.90;99.90;;;;;;5092811;28;19919;-73
2022/03/04 00:33:07;;;;;;;;;;;1.90;99.90;;;;;;5111257;28;19922;-73
2022/03/04 00:35:33;;;;;;;;;;;1.90;99.90;;;;;;5092544;28;19912;-73
2022/03/04 00:37:58;;;;;;;;;;;1.80;99.90;;;;;;5096922;28;20283;-73
2022/03/04 00:40:24;;;;;;;;;;;1.80;99.90;;;;;;5115405;28;19915;-73
2022/03/04 00:42:50;;;;;;;;;;;1.80;99.90;;;;;;5097041;28;20000;-73
2022/03/04 00:45:16;;;;;;;;;;;1.80;99.90;;;;;;5114892;28;19945;-74
2022/03/04 00:47:41;;;;;;;;;;;1.80;99.90;;;;;;5115478;28;19921;-72
2022/03/04 00:50:08;;;;;;;;;;;1.80;99.90;;;;;;5096628;28;20367;-73
2022/03/04 00:52:34;;;;;;;;;;;1.80;99.90;;;;;;5115055;28;19955;-73
2022/03/04 00:54:59;;;;;;;;;;;1.80;99.90;;;;;;5082874;28;20661;-74
2022/03/04 00:57:25;;;;;;;;;;;1.80;99.90;;;;;;5115217;28;20007;-74
2022/03/04 00:59:51;;;;;;;;;;;1.80;99.90;;;;;;5119422;27;19912;-73
2022/03/04 01:02:16;;;;;;;;;;;1.70;99.90;;;;;;5114853;28;20375;-73
2022/03/04 01:04:42;;;;;;;;;;;1.70;99.90;;;;;;5114779;28;19915;-72
2022/03/04 01:07:08;;;;;;;;;;;1.70;99.90;;;;;;5096726;28;19920;-73
2022/03/04 01:09:33;;;;;;;;;;;1.80;99.90;;;;;;5096009;28;20316;-73
2022/03/04 01:11:59;;;;;;;;;;;1.80;99.90;;;;;;5096309;28;19961;-73
2022/03/04 01:14:25;;;;;;;;;;;1.80;99.90;;;;;;5114803;28;19912;-72
2022/03/04 01:16:50;;;;;;;;;;;1.80;99.90;;;;;;5114731;28;20394;-72
2022/03/04 01:19:16;;;;;;;;;;;1.70;99.90;;;;;;5114755;28;19984;-74
2022/03/04 01:21:42;;;;;;;;;;;1.70;99.90;;;;;;5096458;28;19912;-73
2022/03/04 01:24:08;;;;;;;;;;;1.70;99.90;;;;;;5114686;28;20347;-74
2022/03/04 01:26:33;;;;;;;;;;;1.70;99.90;;;;;;5114469;28;19911;-72
2022/03/04 01:28:59;;;;;;;;;;;1.70;99.90;;;;;;5096403;28;20143;-74
2022/03/04 01:31:25;;;;;;;;;;;1.70;99.90;;;;;;5114386;28;20363;-73
2022/03/04 01:33:51;;;;;;;;;;;1.70;99.90;;;;;;5095990;28;19908;-73
2022/03/04 01:36:16;;;;;;;;;;;1.70;99.90;;;;;;5114179;28;20347;-74
2022/03/04 01:38:42;;;;;;;;;;;1.70;99.90;;;;;;5114285;28;19930;-73
2022/03/04 01:41:08;;;;;;;;;;;1.70;99.90;;;;;;5113734;28;19912;-72
2022/03/04 01:43:35;;;;;;;;;;;1.70;99.90;;;;;;5095700;28;19912;-73
2022/03/04 01:46:22;;;;;;;;;;;1.70;99.90;;;;;;5114309;28;19998;-74
2022/03/04 01:48:48;;;;;;;;;;;1.70;99.90;;;;;;5114060;28;19916;-74
2022/03/04 01:51:14;;;;;;;;;;;0.60;99.90;;;;;;5095276;28;19924;-73
2022/03/04 01:53:42;;;;;;;;;;;1.70;99.90;;;;;;5113058;28;20234;-72
2022/03/04 01:56:08;;;;;;;;;;;1.70;99.90;;;;;;5095581;28;20461;-73
2022/03/04 01:58:34;;;;;;;;;;;1.60;99.90;;;;;;5113946;28;19943;-73
2022/03/04 02:01:00;;;;;;;;;;;1.60;99.90;;;;;;5118472;27;19924;-74
2022/03/04 02:03:25;;;;;;;;;;;1.60;99.90;;;;;;5113511;28;19912;-72
2022/03/04 02:05:51;;;;;;;;;;;1.60;99.90;;;;;;5113969;28;19916;-73
2022/03/04 02:08:17;;;;;;;;;;;1.60;99.90;;;;;;5095523;28;19947;-73
2022/03/04 02:10:43;;;;;;;;;;;1.60;99.90;;;;;;5126218;27;19954;-73
2022/03/04 02:13:09;;;;;;;;;;;1.60;99.90;;;;;;5134137;27;20320;-74
2022/03/04 02:15:35;;;;;;;;;;;1.60;99.90;;;;;;5132712;27;19911;-74
2022/03/04 02:18:09;;;;;;;;;;;1.60;99.90;;;;;;5134293;27;19915;-74
2022/03/04 02:20:35;;;;;;;;;;;1.60;99.90;;;;;;5122633;27;19912;-72
2022/03/04 02:23:00;;;;;;;;;;;1.60;99.90;;;;;;5113122;28;19972;-73
2022/03/04 02:25:26;;;;;;;;;;;1.70;99.90;;;;;;5094886;28;19920;-73
2022/03/04 02:27:52;;;;;;;;;;;1.60;99.90;;;;;;5095097;28;19912;-74
2022/03/04 02:30:17;;;;;;;;;;;1.70;99.90;;;;;;5113303;28;19916;-73
2022/03/04 02:32:43;;;;;;;;;;;1.60;99.90;;;;;;5098626;28;19916;-73
2022/03/04 02:35:09;;;;;;;;;;;1.60;99.90;;;;;;5129588;27;19911;-73
2022/03/04 02:37:35;;;;;;;;;;;1.50;99.90;;;;;;5133723;27;19922;-73
2022/03/04 02:40:02;;;;;;;;;;;1.50;99.90;;;;;;5127051;27;19915;-73
2022/03/04 02:42:27;;;;;;;;;;;1.50;99.90;;;;;;5113320;28;20255;-73
2022/03/04 02:44:53;;;;;;;;;;;1.50;99.90;;;;;;5112873;28;19916;-73
2022/03/04 02:47:19;;;;;;;;;;;1.50;99.90;;;;;;5094822;28;19919;-73
2022/03/04 02:49:44;;;;;;;;;;;1.60;99.90;;;;;;5094553;28;20006;-73
2022/03/04 02:52:10;;;;;;;;;;;1.60;99.90;;;;;;5094185;28;19931;-73
2022/03/04 02:54:35;;;;;;;;;;;1.50;99.90;;;;;;5094319;28;20262;-73
2022/03/04 02:57:01;;;;;;;;;;;1.50;99.90;;;;;;5094670;28;19920;-72
2022/03/04 02:59:27;;;;;;;;;;;1.50;99.90;;;;;;5116397;27;19908;-74
2022/03/04 03:01:52;;;;;;;;;;;1.60;99.90;;;;;;5094177;28;20278;-73
2022/03/04 03:04:19;;;;;;;;;;;1.50;99.90;;;;;;5112501;28;19965;-73
2022/03/04 03:06:45;;;;;;;;;;;1.50;99.90;;;;;;5112533;28;19916;-73
2022/03/04 03:09:11;;;;;;;;;;;1.50;99.90;;;;;;5112856;28;19912;-73
2022/03/04 03:11:36;;;;;;;;;;;1.40;99.90;;;;;;5112195;28;20179;-72
2022/03/04 03:14:02;;;;;;;;;;;1.40;99.90;;;;;;5112688;28;19907;-73
2022/03/04 03:16:28;;;;;;;;;;;1.50;99.90;;;;;;5093787;28;20006;-73
2022/03/04 03:18:53;;;;;;;;;;;1.50;99.90;;;;;;5112347;28;19912;-72
2022/03/04 03:21:19;;;;;;;;;;;1.40;99.90;;;;;;5093493;28;19922;-72
2022/03/04 03:23:45;;;;;;;;;;;1.50;99.90;;;;;;5093681;28;19922;-73
2022/03/04 03:26:10;;;;;;;;;;;1.50;99.90;;;;;;5112504;28;19916;-75
2022/03/04 03:28:36;;;;;;;;;;;1.50;99.90;;;;;;5093814;28;19963;-73
2022/03/04 03:31:02;;;;;;;;;;;1.50;99.90;;;;;;5112259;28;20398;-72
2022/03/04 03:33:27;;;;;;;;;;;1.50;99.90;;;;;;5093639;28;19919;-73
2022/03/04 03:35:54;;;;;;;;;;;1.50;99.90;;;;;;5093567;28;20006;-73
2022/03/04 03:38:21;;;;;;;;;;;1.50;99.90;;;;;;5112085;28;20247;-75
2022/03/04 03:40:47;;;;;;;;;;;1.50;99.90;;;;;;5112249;28;20347;-72
2022/03/04 03:43:13;;;;;;;;;;;1.50;99.90;;;;;;5111782;28;20006;-73
2022/03/04 03:45:38;;;;;;;;;;;1.50;99.90;;;;;;5105152;27;20369;-73
2022/03/04 03:48:04;;;;;;;;;;;1.50;99.90;;;;;;5132562;27;19923;-73
2022/03/04 03:50:30;;;;;;;;;;;1.50;99.90;;;;;;5113537;27;19915;-73
2022/03/04 03:52:56;;;;;;;;;;;1.50;99.90;;;;;;5132119;27;19919;-74
2022/03/04 03:55:22;;;;;;;;;;;1.50;99.90;;;;;;5123129;27;19912;-74
2022/03/04 03:57:47;;;;;;;;;;;1.50;99.90;;;;;;5111900;28;19955;-73
2022/03/04 04:00:13;;;;;;;;;;;1.50;99.90;;;;;;5097593;28;20002;-73
2022/03/04 04:02:39;;;;;;;;;;;1.50;99.90;;;;;;5111200;28;19915;-73
2022/03/04 04:05:06;;;;;;;;;;;1.50;99.90;;;;;;5111728;28;19960;-73
2022/03/04 04:07:31;;;;;;;;;;;1.50;99.90;;;;;;5112142;28;20139;-73
2022/03/04 04:09:57;;;;;;;;;;;1.50;99.90;;;;;;5111606;28;19926;-74
2022/03/04 04:12:23;;;;;;;;;;;1.50;99.90;;;;;;5110692;28;19919;-73
2022/03/04 04:14:48;;;;;;;;;;;1.50;99.90;;;;;;5093102;28;20015;-74
2022/03/04 04:17:14;;;;;;;;;;;1.50;99.90;;;;;;5093401;28;19912;-73
2022/03/04 04:19:40;;;;;;;;;;;1.50;99.90;;;;;;5092873;28;19916;-73
2022/03/04 04:22:05;;;;;;;;;;;1.50;99.90;;;;;;5092951;28;19919;-73
2022/03/04 04:24:31;;;;;;;;;;;1.50;99.90;;;;;;5113243;28;19962;-73
2022/03/04 04:26:57;;;;;;;;;;;1.50;99.90;;;;;;5131846;28;19929;-74
2022/03/04 04:29:22;;;;;;;;;;;1.50;99.90;;;;;;5129209;28;19913;-73
2022/03/04 04:31:48;;;;;;;;;;;1.50;99.90;;;;;;5093397;28;19919;-74
2022/03/04 04:34:13;;;;;;;;;;;1.50;99.90;;;;;;5111189;28;19912;-74
2022/03/04 04:36:39;;;;;;;;;;;1.50;99.90;;;;;;5092753;28;19912;-74
2022/03/04 04:39:05;;;;;;;;;;;1.50;99.90;;;;;;5111195;28;19952;-73
2022/03/04 04:41:30;;;;;;;;;;;1.50;99.90;;;;;;5111052;28;19966;-73
2022/03/04 04:43:56;;;;;;;;;;;1.50;99.90;;;;;;5092459;28;20405;-73
2022/03/04 04:46:21;;;;;;;;;;;1.50;99.90;;;;;;5110802;28;19961;-73
2022/03/04 04:48:47;;;;;;;;;;;1.40;99.90;;;;;;5111089;28;19908;-72
2022/03/04 04:51:13;;;;;;;;;;;1.40;99.90;;;;;;5105529;28;19959;-73
2022/03/04 04:53:39;;;;;;;;;;;1.40;99.90;;;;;;5110780;28;19932;-74
2022/03/04 04:56:05;;;;;;;;;;;1.40;99.90;;;;;;5094223;28;19919;-73
2022/03/04 04:58:30;;;;;;;;;;;1.50;99.90;;;;;;5089586;28;19916;-74
2022/03/04 05:00:56;;;;;;;;;;;1.50;99.90;;;;;;5104645;28;19923;-73
2022/03/04 05:03:22;;;;;;;;;;;1.50;99.90;;;;;;5109386;28;19912;-73
2022/03/04 05:05:48;;;;;;;;;;;1.50;99.90;;;;;;5098152;28;19923;-73
2022/03/04 05:08:14;;;;;;;;;;;1.50;99.90;;;;;;5089475;28;20298;-75
2022/03/04 05:10:40;;;;;;;;;;;1.50;99.90;;;;;;5090870;28;20202;-73
2022/03/04 05:13:05;;;;;;;;;;;1.50;99.90;;;;;;5090257;28;19916;-73
2022/03/04 05:15:34;;;;;;;;;;;1.50;99.90;;;;;;5089170;28;19912;-73
2022/03/04 05:17:59;;;;;;;;;;;1.50;99.90;;;;;;5090777;28;19916;-74
2022/03/04 05:20:25;;;;;;;;;;;1.50;99.90;;;;;;5089039;28;19922;-74
2022/03/04 05:22:51;;;;;;;;;;;1.50;99.90;;;;;;5090473;28;20282;-74
2022/03/04 05:25:16;;;;;;;;;;;1.40;99.90;;;;;;5092706;28;19923;-74
2022/03/04 05:27:42;;;;;;;;;;;1.50;99.90;;;;;;5094203;28;20315;-73
2022/03/04 05:30:08;;;;;;;;;;;1.50;99.90;;;;;;5092812;28;19920;-74
2022/03/04 05:32:33;;;;;;;;;;;1.50;99.90;;;;;;5092930;28;19968;-73
2022/03/04 05:34:59;;;;;;;;;;;1.50;99.90;;;;;;5093711;28;19919;-73
2022/03/04 05:37:25;;;;;;;;;;;1.60;99.90;;;;;;5092802;28;19912;-73
2022/03/04 05:39:52;;;;;;;;;;;1.60;99.90;;;;;;5094273;28;19920;-73
2022/03/04 05:42:18;;;;;;;;;;;1.60;99.90;;;;;;5094010;28;20339;-73
2022/03/04 05:44:43;;;;;;;;;;;1.60;99.90;;;;;;5093420;28;20302;-74
2022/03/04 05:47:10;;;;;;;;;;;1.60;99.90;;;;;;5093956;28;19920;-74
2022/03/04 05:49:35;;;;;;;;;;;1.60;99.90;;;;;;5093814;28;19912;-74
2022/03/04 05:52:01;;;;;;;;;;;1.60;99.90;;;;;;5107293;28;20005;-72
2022/03/04 05:54:27;;;;;;;;;;;1.60;99.90;;;;;;5095467;28;20003;-72
2022/03/04 05:56:52;;;;;;;;;;;1.60;99.90;;;;;;5114278;28;20399;-73
2022/03/04 05:59:18;;;;;;;;;;;1.70;99.90;;;;;;5118989;27;20358;-74
2022/03/04 06:01:44;;;;;;;;;;;1.60;99.90;;;;;;5134531;27;19915;-74
2022/03/04 06:04:09;;;;;;;;;;;1.70;99.90;;;;;;5134190;27;19998;-75
2022/03/04 06:06:35;;;;;;;;;;;1.70;99.90;;;;;;5115603;27;20010;-73
2022/03/04 06:09:00;;;;;;;;;;;1.70;99.90;;;;;;5150277;27;19912;-73
2022/03/04 06:11:26;;;;;;;;;;;1.80;99.90;;;;;;5115862;27;19919;-71
2022/03/04 06:13:52;;;;;;;;;;;1.80;99.90;;;;;;5113508;28;19911;-74
2022/03/04 06:16:17;;;;;;;;;;;1.80;99.90;;;;;;5095092;28;20374;-73
2022/03/04 06:18:43;;;;;;;;;;;1.80;99.90;;;;;;5113623;28;19912;-73
2022/03/04 06:21:08;;;;;;;;;;;1.80;99.90;;;;;;5113803;28;19912;-73
2022/03/04 06:23:34;;;;;;;;;;;1.80;99.90;;;;;;5095149;28;19920;-74
2022/03/04 06:26:00;;;;;;;;;;;1.80;99.90;;;;;;5113476;28;19919;-73
2022/03/04 06:28:26;;;;;;;;;;;1.80;99.90;;;;;;5095030;28;20279;-75
2022/03/04 06:30:52;;;;;;;;;;;1.80;99.90;;;;;;5094849;28;20367;-73
2022/03/04 06:33:32;;;;;;;;;;;1.80;99.90;;;;;;5112951;28;20006;-73
2022/03/04 06:35:59;;;;;;;;;;;1.80;99.90;;;;;;5112969;28;20370;-74
2022/03/04 06:38:25;;;;;;;;;;;1.80;99.90;;;;;;5113228;28;19919;-74
2022/03/04 06:40:51;;;;;;;;;;;1.90;99.90;;;;;;5113240;28;19920;-73
2022/03/04 06:43:17;;;;;;;;;;;1.90;99.90;;;;;;5113126;28;19919;-73
2022/03/04 06:45:44;;;;;;;;;;;1.90;99.90;;;;;;5094449;28;19916;-73
2022/03/04 06:48:14;;;;;;;;;;;1.90;99.90;;;;;;5113198;28;20368;-72
2022/03/04 06:50:40;;;;;;;;;;;1.80;99.90;;;;;;5112902;28;20375;-73
2022/03/04 06:53:05;;;;;;;;;;;1.90;99.90;;;;;;5113139;28;19916;-74
2022/03/04 06:55:32;;;;;;;;;;;1.80;99.90;;;;;;5094076;28;20276;-74
2022/03/04 06:58:01;;;;;;;;;;;1.90;99.90;;;;;;5112992;28;19937;-74
2022/03/04 07:00:27;;;;;;;;;;;2.00;99.90;;;;;;5099061;28;19984;-73
2022/03/04 07:02:53;;;;;;;;;;;2.00;99.90;;;;;;5113142;28;19955;-74
2022/03/04 07:05:22;;;;;;;;;;;2.00;99.90;;;;;;5094066;28;20328;-74
2022/03/04 07:07:52;;;;;;;;;;;2.00;99.90;;;;;;5094192;28;19920;-74
2022/03/04 07:10:18;;;;;;;;;;;2.10;99.90;;;;;;5094203;28;19972;-73
2022/03/04 07:12:44;;;;;;;;;;;2.20;99.90;;;;;;5094040;28;20383;-71
2022/03/04 07:15:09;;;;;;;;;;;2.30;99.90;;;;;;5093820;28;20361;-74
2022/03/04 07:17:35;;;;;;;;;;;2.40;99.90;;;;;;5112990;28;20279;-74
2022/03/04 07:20:01;;;;;;;;;;;2.50;99.90;;;;;;5112589;28;19920;-73
2022/03/04 07:22:27;;;;;;;;;;;2.60;99.90;;;;;;5093963;28;20363;-74
2022/03/04 07:24:52;;;;;;;;;;;2.70;99.90;;;;;;5112113;28;19923;-73
2022/03/04 07:27:18;;;;;;;;;;;2.60;99.90;;;;;;5112600;28;19938;-74
2022/03/04 07:29:43;;;;;;;;;;;2.70;99.90;;;;;;5093744;28;19942;-74
2022/03/04 07:32:09;;;;;;;;;;;2.80;99.90;;;;;;5112306;28;19920;-74
2022/03/04 07:34:34;;;;;;;;;;;2.80;99.90;;;;;;5112000;28;19919;-73
2022/03/04 07:37:00;;;;;;;;;;;2.90;99.90;;;;;;5112126;28;20029;-73
2022/03/04 07:39:26;;;;;;;;;;;2.80;99.90;;;;;;5093428;28;19916;-75
2022/03/04 07:41:51;;;;;;;;;;;2.80;99.90;;;;;;5093932;28;19908;-75
2022/03/04 07:44:20;;;;;;;;;;;2.80;99.90;;;;;;5112157;28;19927;-74
2022/03/04 07:46:46;;;;;;;;;;;2.90;99.90;;;;;;5093319;28;19919;-75
2022/03/04 07:49:11;;;;;;;;;;;3.00;99.90;;;;;;5112059;28;20251;-74
2022/03/04 07:51:37;;;;;;;;;;;3.00;99.90;;;;;;5111375;28;20361;-74
2022/03/04 07:54:02;;;;;;;;;;;3.00;99.90;;;;;;5111880;28;19934;-73
2022/03/04 07:56:28;;;;;;;;;;;2.90;99.90;;;;;;5111460;28;19916;-73
2022/03/04 07:58:54;;;;;;;;;;;2.90;99.90;;;;;;5113383;27;20275;-73
2022/03/04 08:01:19;;;;;;;;;;;2.90;99.90;;;;;;5096479;28;19961;-74
2022/03/04 08:03:45;;;;;;;;;;;3.10;99.90;;;;;;5111469;28;19918;-74
2022/03/04 08:06:11;;;;;;;;;;;3.10;99.90;;;;;;5111170;28;20014;-73
2022/03/04 08:08:36;;;;;;;;;;;3.10;99.90;;;;;;5111369;28;19918;-74
2022/03/04 08:11:02;;;;;;;;;;;3.20;99.90;;;;;;5093034;28;19951;-74
2022/03/04 08:13:28;;;;;;;;;;;3.30;99.90;;;;;;5093375;28;19915;-74
2022/03/04 08:15:53;;;;;;;;;;;3.40;99.90;;;;;;5092836;28;19911;-74
2022/03/04 08:18:19;;;;;;;;;;;3.50;99.90;;;;;;5093574;28;20359;-74
2022/03/04 08:20:45;;;;;;;;;;;3.40;99.90;;;;;;5092691;28;19908;-73
2022/03/04 08:23:11;;;;;;;;;;;3.40;99.90;;;;;;5093062;28;20359;-73
2022/03/04 08:25:38;;;;;;;;;;;3.30;99.90;;;;;;5111054;28;19965;-75
2022/03/04 08:28:03;;;;;;;;;;;3.30;99.90;;;;;;5093128;28;20006;-73
2022/03/04 08:30:29;;;;;;;;;;;3.30;99.90;;;;;;5110970;28;20480;-73
2022/03/04 08:32:55;;;;;;;;;;;3.30;99.90;;;;;;5092930;28;19964;-74
2022/03/04 08:35:20;;;;;;;;;;;3.50;99.90;;;;;;5111292;28;19923;-73
2022/03/04 08:37:46;;;;;;;;;;;3.70;99.90;;;;;;5092970;28;19916;-74
2022/03/04 08:40:12;;;;;;;;;;;3.80;99.90;;;;;;5110999;28;19918;-75
2022/03/04 08:42:38;;;;;;;;;;;4.00;99.90;;;;;;5111453;28;19912;-74
2022/03/04 08:45:04;;;;;;;;;;;4.20;99.90;;;;;;5110940;28;20418;-73
2022/03/04 08:47:30;;;;;;;;;;;4.30;99.90;;;;;;5111443;28;20037;-74
2022/03/04 08:49:55;;;;;;;;;;;4.30;99.90;;;;;;5111232;28;20359;-74
2022/03/04 08:52:21;;;;;;;;;;;4.30;99.90;;;;;;5111155;28;19930;-74
2022/03/04 08:54:47;;;;;;;;;;;4.30;99.90;;;;;;5092689;28;20359;-74
2022/03/04 08:57:13;;;;;;;;;;;4.20;99.90;;;;;;5111623;28;19919;-74
2022/03/04 08:59:38;;;;;;;;;;;4.20;99.90;;;;;;5117837;27;20351;-73
2022/03/04 09:02:05;;;;;;;;;;;4.20;99.90;;;;;;5135646;27;19922;-74
2022/03/04 09:04:30;;;;;;;;;;;4.20;99.90;;;;;;5149413;27;19915;-74
2022/03/04 09:06:56;;;;;;;;;;;4.20;99.90;;;;;;5115156;28;20381;-74
2022/03/04 09:09:22;;;;;;;;;;;4.10;99.90;;;;;;5114887;28;19930;-74
2022/03/04 09:11:47;;;;;;;;;;;4.00;99.90;;;;;;5115420;28;19916;-73
2022/03/04 09:14:15;;;;;;;;;;;4.10;99.90;;;;;;5114900;28;19933;-74
2022/03/04 09:16:41;;;;;;;;;;;4.20;99.90;;;;;;5096139;28;20375;-74
2022/03/04 09:19:07;;;;;;;;;;;4.20;99.90;;;;;;5115009;28;19919;-74
2022/03/04 09:21:33;;;;;;;;;;;4.20;99.90;;;;;;5114609;28;19912;-74
2022/03/04 09:23:59;;;;;;;;;;;4.20;99.90;;;;;;5096404;28;19920;-73
2022/03/04 09:26:26;;;;;;;;;;;4.20;99.90;;;;;;5096018;28;19966;-74
2022/03/04 09:28:52;;;;;;;;;;;4.20;99.90;;;;;;5096052;28;19916;-75
2022/03/04 09:31:18;;;;;;;;;;;4.20;99.90;;;;;;5095995;28;20377;-74
2022/03/04 09:33:44;;;;;;;;;;;4.10;99.90;;;;;;5095954;28;19912;-74
2022/03/04 09:36:11;;;;;;;;;;;4.10;99.90;;;;;;5111890;27;19912;-75
2022/03/04 09:38:38;;;;;;;;;;;4.00;99.90;;;;;;5116673;27;20199;-74
2022/03/04 09:41:04;;;;;;;;;;;4.00;99.90;;;;;;5116330;27;19915;-74
2022/03/04 09:43:30;;;;;;;;;;;4.00;99.90;;;;;;5150864;27;20378;-74
2022/03/04 09:45:56;;;;;;;;;;;4.10;99.90;;;;;;5140199;27;19911;-73
2022/03/04 09:48:22;;;;;;;;;;;4.10;99.90;;;;;;5116279;27;19920;-74
2022/03/04 09:50:48;;;;;;;;;;;4.20;99.90;;;;;;5133759;27;19919;-75
2022/03/04 09:53:14;;;;;;;;;;;4.40;99.90;;;;;;5150798;27;19950;-73
2022/03/04 09:55:41;;;;;;;;;;;4.40;99.90;;;;;;5122681;27;19965;-73
2022/03/04 09:58:14;;;;;;;;;;;4.40;99.90;;;;;;5095831;28;19931;-74
2022/03/04 10:00:42;;;;;;;;;;;4.40;99.90;;;;;;5111695;27;19958;-74
2022/03/04 10:03:26;;;;;;;;;;;4.50;99.90;;;;;;5134746;27;19908;-73
2022/03/04 10:05:53;;;;;;;;;;;4.50;99.90;;;;;;5120942;27;19927;-75
2022/03/04 10:08:19;;;;;;;;;;;4.60;99.90;;;;;;5113241;28;19916;-74
2022/03/04 10:10:52;;;;;;;;;;;4.60;99.90;;;;;;5112734;28;19918;-74
2022/03/04 10:13:21;;;;;;;;;;;4.60;99.90;;;;;;5113707;28;20002;-74
2022/03/04 10:15:56;;;;;;;;;;;4.60;99.90;;;;;;5095187;28;19907;-73
2022/03/04 10:18:25;;;;;;;;;;;4.60;99.90;;;;;;5113885;28;19923;-75
2022/03/04 10:20:51;;;;;;;;;;;4.50;99.90;;;;;;5113667;28;19912;-74
2022/03/04 10:23:22;;;;;;;;;;;4.60;99.90;;;;;;5095057;28;19915;-73
2022/03/04 10:25:49;;;;;;;;;;;4.60;99.90;;;;;;5094823;28;19911;-74
2022/03/04 10:28:15;;;;;;;;;;;4.80;99.90;;;;;;5113367;28;20383;-74
2022/03/04 10:30:45;;;;;;;;;;;4.90;99.90;;;;;;5094983;28;19911;-74
2022/03/04 10:33:13;;;;;;;;;;;4.90;99.90;;;;;;5095271;28;20284;-74
2022/03/04 10:35:39;;;;;;;;;;;5.10;99.90;;;;;;5094598;28;19915;-75
2022/03/04 10:38:07;;;;;;;;;;;5.10;99.90;;;;;;5113749;28;20395;-74
2022/03/04 10:40:35;;;;;;;;;;;5.10;99.90;;;;;;5094547;28;19916;-74
2022/03/04 10:43:02;;;;;;;;;;;5.10;99.90;;;;;;5095042;28;19928;-74
2022/03/04 10:45:27;;;;;;;;;;;5.10;99.90;;;;;;5094751;28;20282;-73
2022/03/04 10:47:57;;;;;;;;;;;5.20;99.90;;;;;;5113851;28;19998;-73
2022/03/04 10:50:34;;;;;;;;;;;5.20;99.90;;;;;;5112688;28;19916;-76
2022/03/04 10:53:09;;;;;;;;;;;5.10;99.90;;;;;;5113264;28;20356;-74
2022/03/04 10:55:36;;;;;;;;;;;5.10;99.90;;;;;;5112613;28;19912;-74
2022/03/04 10:58:03;;;;;;;;;;;5.20;99.90;;;;;;5113516;28;19916;-74
2022/03/04 11:00:30;;;;;;;;;;;5.40;99.90;;;;;;5117212;27;19912;-74
2022/03/04 11:02:56;;;;;;;;;;;5.50;99.90;;;;;;5113141;28;19922;-74
2022/03/04 11:05:22;;;;;;;;;;;4.60;99.90;;;;;;5102978;27;19915;-74
2022/03/04 11:07:48;;;;;;;;;;;5.10;99.90;;;;;;5114994;27;20366;-74
2022/03/04 11:10:14;;;;;;;;;;;5.10;99.90;;;;;;5106495;28;20424;-73
2022/03/04 11:12:42;;;;;;;;;;;5.00;99.90;;;;;;5094409;28;19911;-75
2022/03/04 11:15:11;;;;;;;;;;;5.00;99.90;;;;;;5112463;28;19915;-75
2022/03/04 11:17:37;;;;;;;;;;;5.20;99.90;;;;;;5094730;28;19919;-74
2022/03/04 11:20:03;;;;;;;;;;;5.60;99.90;;;;;;5111719;28;19934;-74
2022/03/04 11:22:29;;;;;;;;;;;5.80;99.90;;;;;;5094078;28;19918;-74
2022/03/04 11:25:00;;;;;;;;;;;6.20;99.90;;;;;;5093829;28;20304;-74
2022/03/04 11:27:26;;;;;;;;;;;6.60;99.90;;;;;;5112818;28;19912;-74
2022/03/04 11:29:55;;;;;;;;;;;6.80;99.90;;;;;;5093981;28;19923;-74
2022/03/04 11:32:28;;;;;;;;;;;6.80;99.90;;;;;;5112420;28;20082;-74
2022/03/04 11:34:53;;;;;;;;;;;6.80;99.90;;;;;;5112151;28;19912;-74
2022/03/04 11:37:20;;;;;;;;;;;6.80;99.90;;;;;;5094022;28;20003;-74
2022/03/04 11:40:03;;;;;;;;;;;6.90;99.90;;;;;;5097478;27;19919;-75
2022/03/04 11:42:38;;;;;;;;;;;7.10;99.90;;;;;;5114298;27;19911;-75
2022/03/04 11:45:06;;;;;;;;;;;7.20;99.90;;;;;;5132438;27;19916;-75
2022/03/04 11:47:44;;;;;;;;;;;7.10;99.90;;;;;;5132632;27;20271;-75
2022/03/04 11:50:24;;;;;;;;;;;7.10;99.90;;;;;;5125194;27;19919;-76
2022/03/04 11:52:49;;;;;;;;;;;7.10;99.90;;;;;;5112090;28;19924;-74
2022/03/04 11:55:21;;;;;;;;;;;7.20;99.90;;;;;;5093197;28;19922;-75
2022/03/04 11:57:47;;;;;;;;;;;7.00;99.90;;;;;;5093666;28;20002;-75
2022/03/04 12:00:14;;;;;;;;;;;6.90;99.90;;;;;;5116152;27;19911;-74
2022/03/04 12:02:42;;;;;;;;;;;6.80;99.90;;;;;;5093202;28;19919;-77
2022/03/04 12:05:19;;;;;;;;;;;6.70;99.90;;;;;;5093383;28;19969;-74
2022/03/04 12:07:45;;;;;;;;;;;6.40;99.90;;;;;;5093348;28;19942;-75
2022/03/04 12:10:12;;;;;;;;;;;6.10;99.90;;;;;;5092967;28;19927;-75
2022/03/04 12:12:38;;;;;;;;;;;6.00;99.90;;;;;;5111767;28;20002;-76
2022/03/04 12:15:16;;;;;;;;;;;5.90;99.90;;;;;;5099488;27;19915;-75
2022/03/04 12:18:14;;;;;;;;;;;5.80;99.90;;;;;;5114062;28;19922;-73
2022/03/04 12:20:40;;;;;;;;;;;5.70;99.90;;;;;;5054584;28;19976;-76
2022/03/04 12:23:16;;;;;;;;;;;5.70;99.90;;;;;;5111736;28;20343;-74
2022/03/04 12:25:57;;;;;;;;;;;5.70;99.90;;;;;;5093022;28;19928;-73
2022/03/04 12:28:24;;;;;;;;;;;5.80;99.90;;;;;;5093022;28;20335;-74
2022/03/04 12:30:59;;;;;;;;;;;5.90;99.90;;;;;;5092466;28;19954;-74
2022/03/04 12:33:25;;;;;;;;;;;5.80;99.90;;;;;;5091741;28;19912;-74
2022/03/04 12:35:57;;;;;;;;;;;5.70;99.90;;;;;;5111034;28;20018;-76
2022/03/04 12:38:29;;;;;;;;;;;5.40;99.90;;;;;;5093241;28;19919;-74
2022/03/04 12:40:54;;;;;;;;;;;5.00;99.90;;;;;;5092728;28;19907;-74
2022/03/04 12:43:20;;;;;;;;;;;4.70;99.90;;;;;;5092932;28;20283;-76
2022/03/04 12:45:46;;;;;;;;;;;4.50;99.90;;;;;;5092696;28;20317;-75
2022/03/04 12:48:11;;;;;;;;;;;4.30;99.90;;;;;;5110947;28;20014;-74
2022/03/04 12:50:38;;;;;;;;;;;4.30;99.90;;;;;;5091099;28;19912;-73
2022/03/04 12:53:24;;;;;;;;;;;4.20;99.90;;;;;;5092772;28;19915;-75
2022/03/04 12:55:54;;;;;;;;;;;4.10;99.90;;;;;;5092654;28;19950;-75
2022/03/04 12:58:36;;;;;;;;;;;4.00;99.90;;;;;;5111198;28;20283;-74
2022/03/04 13:01:02;;;;;;;;;;;4.00;99.90;;;;;;5125133;28;19916;-74
2022/03/04 13:03:28;;;;;;;;;;;3.90;99.90;;;;;;5131441;28;20320;-75
2022/03/04 13:05:54;;;;;;;;;;;3.90;99.90;;;;;;5137267;27;19911;-75
2022/03/04 13:08:20;;;;;;;;;;;3.90;99.90;;;;;;5113453;28;20376;-76
2022/03/04 13:10:47;;;;;;;;;;;3.80;99.90;;;;;;5112456;28;20271;-74
2022/03/04 13:13:13;;;;;;;;;;;3.80;99.90;;;;;;5131727;28;19911;-74
2022/03/04 13:15:50;;;;;;;;;;;3.80;99.90;;;;;;5147192;27;19915;-74
2022/03/04 13:18:16;;;;;;;;;;;3.70;99.90;;;;;;5131475;28;19931;-75
2022/03/04 13:21:00;;;;;;;;;;;3.70;99.90;;;;;;5138764;27;19918;-74
2022/03/04 13:23:26;;;;;;;;;;;3.70;99.90;;;;;;5112851;28;19958;-73
2022/03/04 13:25:51;;;;;;;;;;;3.70;99.90;;;;;;5112621;28;19959;-75
2022/03/04 13:28:17;;;;;;;;;;;3.70;99.90;;;;;;5131319;28;19923;-74
2022/03/04 13:30:46;;;;;;;;;;;3.80;99.90;;;;;;5119004;28;19979;-74
2022/03/04 13:33:12;;;;;;;;;;;3.90;99.90;;;;;;5111050;28;20350;-74
2022/03/04 13:35:46;;;;;;;;;;;3.90;99.90;;;;;;5110997;28;19930;-74
2022/03/04 13:38:22;;;;;;;;;;;4.00;99.90;;;;;;5092779;28;20581;-74
2022/03/04 13:40:49;;;;;;;;;;;4.10;99.90;;;;;;5092299;28;19965;-75
2022/03/04 13:43:26;;;;;;;;;;;4.10;99.90;;;;;;5092967;28;19916;-74
2022/03/04 13:45:54;;;;;;;;;;;4.20;99.90;;;;;;5114181;28;20375;-73
2022/03/04 13:48:21;;;;;;;;;;;4.20;99.90;;;;;;5096027;28;19916;-75
2022/03/04 13:50:46;;;;;;;;;;;4.30;99.90;;;;;;5112713;28;19961;-74
2022/03/04 13:53:13;;;;;;;;;;;4.30;99.90;;;;;;5114446;28;19920;-74
2022/03/04 13:55:39;;;;;;;;;;;4.20;99.90;;;;;;5106835;27;19958;-73
2022/03/04 13:58:11;;;;;;;;;;;4.10;99.90;;;;;;5116380;27;19947;-73
2022/03/04 14:00:38;;;;;;;;;;;4.00;99.90;;;;;;5123589;27;19922;-74
2022/03/04 14:03:08;;;;;;;;;;;4.00;99.90;;;;;;5114195;28;20348;-74
2022/03/04 14:05:35;;;;;;;;;;;3.90;99.90;;;;;;5095243;28;19920;-74
2022/03/04 14:08:00;;;;;;;;;;;3.80;99.90;;;;;;5114478;28;20401;-75
2022/03/04 14:10:27;;;;;;;;;;;3.60;99.90;;;;;;5095223;28;19920;-74
2022/03/04 14:12:53;;;;;;;;;;;3.50;99.90;;;;;;5113888;28;20241;-74
2022/03/04 14:15:18;;;;;;;;;;;3.50;99.90;;;;;;5113443;28;20014;-73
2022/03/04 14:17:45;;;;;;;;;;;3.40;99.90;;;;;;5095622;28;19955;-74
2022/03/04 14:20:11;;;;;;;;;;;3.40;99.90;;;;;;5113461;28;20383;-73
2022/03/04 14:22:36;;;;;;;;;;;3.30;99.90;;;;;;5113701;28;19962;-73
2022/03/04 14:25:02;;;;;;;;;;;3.30;99.90;;;;;;5094943;28;19920;-74
2022/03/04 14:27:28;;;;;;;;;;;3.20;99.90;;;;;;5113993;28;19908;-75
2022/03/04 14:29:53;;;;;;;;;;;3.20;99.90;;;;;;5094898;28;19916;-73